sensor_id;sensor_type;location;lat;lon;timestamp;pressure;altitude;pressure_sealevel;temperature;humidity
20115;BME280;10218;42.874;25.320;2023-06-22T00:01:21;97456.63;;;19.62;100.00
20115;BME280;10218;42.874;25.320;2023-06-22T00:03:49;97478.47;;;19.67;100.00
20115;BME280;10218;42.874;25.320;2023-06-22T00:06:16;97467.59;;;19.49;100.00
20115;BME280;10218;42.874;25.320;2023-06-22T00:08:43;97467.47;;;19.62;100.00
20115;BME280;10218;42.874;25.320;2023-06-22T00:11:11;97470.97;;;19.44;100.00
20115;BME280;10218;42.874;25.320;2023-06-22T00:13:38;97467.47;;;19.62;100.00
20115;BME280;10218;42.874;25.320;2023-06-22T00:16:05;97468.81;;;19.53;100.00
20115;BME280;10218;42.874;25.320;2023-06-22T00:18:33;97469.25;;;19.50;100.00
20115;BME280;10218;42.874;25.320;2023-06-22T00:21:00;97470.66;;;19.59;100.00
20115;BME280;10218;42.874;25.320;2023-06-22T00:23:27;97474.84;;;19.55;100.00
20115;BME280;10218;42.874;25.320;2023-06-22T00:25:54;97478.59;;;19.54;100.00
20115;BME280;10218;42.874;25.320;2023-06-22T00:28:21;97478.94;;;19.64;100.00
20115;BME280;10218;42.874;25.320;2023-06-22T00:30:49;97483.47;;;19.70;100.00
20115;BME280;10218;42.874;25.320;2023-06-22T00:33:17;97482.56;;;19.51;100.00
20115;BME280;10218;42.874;25.320;2023-06-22T00:35:44;97480.34;;;19.67;100.00
20115;BME280;10218;42.874;25.320;2023-06-22T00:38:11;97481.66;;;19.64;100.00
20115;BME280;10218;42.874;25.320;2023-06-22T00:40:41;97480.53;;;19.72;100.00
20115;BME280;10218;42.874;25.320;2023-06-22T00:43:08;97471.72;;;19.76;100.00
20115;BME280;10218;42.874;25.320;2023-06-22T00:45:35;97471.41;;;19.91;100.00
20115;BME280;10218;42.874;25.320;2023-06-22T00:48:03;97472.19;;;19.91;100.00
20115;BME280;10218;42.874;25.320;2023-06-22T00:50:32;97470.09;;;19.75;100.00
20115;BME280;10218;42.874;25.320;2023-06-22T00:53:07;97473.94;;;19.86;100.00
20115;BME280;10218;42.874;25.320;2023-06-22T00:55:41;97475.94;;;19.72;100.00
20115;BME280;10218;42.874;25.320;2023-06-22T00:58:11;97477.28;;;19.63;100.00
20115;BME280;10218;42.874;25.320;2023-06-22T01:00:39;97478.47;;;19.67;100.00
20115;BME280;10218;42.874;25.320;2023-06-22T01:03:07;97478.81;;;19.52;100.00
20115;BME280;10218;42.874;25.320;2023-06-22T01:05:38;97477.78;;;19.53;100.00
20115;BME280;10218;42.874;25.320;2023-06-22T01:08:12;97476.44;;;19.62;100.00
20115;BME280;10218;42.874;25.320;2023-06-22T01:10:50;97474.41;;;19.58;100.00
20115;BME280;10218;42.874;25.320;2023-06-22T01:16:20;97462.37;;;19.72;100.00
20115;BME280;10218;42.874;25.320;2023-06-22T01:18:52;97464.81;;;19.80;100.00
20115;BME280;10218;42.874;25.320;2023-06-22T01:21:21;97466.09;;;19.53;100.00
20115;BME280;10218;42.874;25.320;2023-06-22T01:24:21;97458.28;;;19.38;100.00
20115;BME280;10218;42.874;25.320;2023-06-22T01:29:56;97458.91;;;19.09;100.00
20115;BME280;10218;42.874;25.320;2023-06-22T01:32:36;97460.88;;;19.20;100.00
20115;BME280;10218;42.874;25.320;2023-06-22T01:35:05;97450.88;;;19.20;100.00
20115;BME280;10218;42.874;25.320;2023-06-22T01:37:36;97457.41;;;19.13;100.00
20115;BME280;10218;42.874;25.320;2023-06-22T01:40:05;97457.94;;;19.28;100.00
20115;BME280;10218;42.874;25.320;2023-06-22T01:42:33;97456.66;;;19.31;100.00
20115;BME280;10218;42.874;25.320;2023-06-22T01:45:02;97452.47;;;19.35;100.00
20115;BME280;10218;42.874;25.320;2023-06-22T01:47:30;97462.06;;;19.31;100.00
20115;BME280;10218;42.874;25.320;2023-06-22T01:49:57;97459.19;;;19.26;100.00
20115;BME280;10218;42.874;25.320;2023-06-22T01:52:25;97469.44;;;19.23;100.00
20115;BME280;10218;42.874;25.320;2023-06-22T01:54:52;97466.66;;;19.30;100.00
20115;BME280;10218;42.874;25.320;2023-06-22T01:57:19;97473.09;;;19.04;100.00
20115;BME280;10218;42.874;25.320;2023-06-22T02:00:00;97483.00;;;19.17;100.00
20115;BME280;10218;42.874;25.320;2023-06-22T02:02:32;97469.63;;;19.22;100.00
20115;BME280;10218;42.874;25.320;2023-06-22T02:05:12;97476.09;;;19.21;100.00
20115;BME280;10218;42.874;25.320;2023-06-22T02:07:47;97477.22;;;19.13;100.00
20115;BME280;10218;42.874;25.320;2023-06-22T02:10:19;97482.53;;;19.27;100.00
20115;BME280;10218;42.874;25.320;2023-06-22T02:12:47;97492.81;;;19.18;100.00
20115;BME280;10218;42.874;25.320;2023-06-22T02:15:16;97485.56;;;19.05;100.00
20115;BME280;10218;42.874;25.320;2023-06-22T02:17:45;97494.00;;;18.91;100.00
20115;BME280;10218;42.874;25.320;2023-06-22T02:20:14;97500.72;;;18.75;100.00
20115;BME280;10218;42.874;25.320;2023-06-22T02:22:42;97497.34;;;18.86;100.00
20115;BME280;10218;42.874;25.320;2023-06-22T02:25:10;97504.53;;;18.67;100.00
20115;BME280;10218;42.874;25.320;2023-06-22T02:27:37;97499.47;;;18.84;100.00
20115;BME280;10218;42.874;25.320;2023-06-22T02:30:08;97497.47;;;19.04;100.00
20115;BME280;10218;42.874;25.320;2023-06-22T02:32:37;97502.09;;;18.97;100.00
20115;BME280;10218;42.874;25.320;2023-06-22T02:35:09;97498.44;;;19.16;100.00
20115;BME280;10218;42.874;25.320;2023-06-22T02:37:37;97498.88;;;19.13;100.00
20115;BME280;10218;42.874;25.320;2023-06-22T02:40:09;97509.28;;;19.10;100.00
20115;BME280;10218;42.874;25.320;2023-06-22T02:42:37;97506.69;;;19.28;100.00
20115;BME280;10218;42.874;25.320;2023-06-22T02:45:05;97500.00;;;19.31;100.00
20115;BME280;10218;42.874;25.320;2023-06-22T02:47:32;97501.78;;;19.12;100.00
20115;BME280;10218;42.874;25.320;2023-06-22T02:49:59;97513.81;;;19.22;100.00
20115;BME280;10218;42.874;25.320;2023-06-22T02:52:28;97521.44;;;19.01;100.00
20115;BME280;10218;42.874;25.320;2023-06-22T02:54:55;97520.19;;;19.03;100.00
20115;BME280;10218;42.874;25.320;2023-06-22T02:57:23;97511.03;;;19.04;100.00
20115;BME280;10218;42.874;25.320;2023-06-22T02:59:49;97509.63;;;19.27;100.00
20115;BME280;10218;42.874;25.320;2023-06-22T03:02:17;97507.56;;;19.22;100.00
20115;BME280;10218;42.874;25.320;2023-06-22T03:04:45;97516.72;;;19.21;100.00
20115;BME280;10218;42.874;25.320;2023-06-22T03:07:16;97516.16;;;19.12;100.00
20115;BME280;10218;42.874;25.320;2023-06-22T03:09:44;97520.44;;;19.27;100.00
20115;BME280;10218;42.874;25.320;2023-06-22T03:12:12;97519.88;;;19.18;100.00
20115;BME280;10218;42.874;25.320;2023-06-22T03:14:40;97511.63;;;19.06;100.00
20115;BME280;10218;42.874;25.320;2023-06-22T03:17:07;97523.13;;;18.95;100.00
20115;BME280;10218;42.874;25.320;2023-06-22T03:19:36;97529.78;;;18.99;100.00
20115;BME280;10218;42.874;25.320;2023-06-22T03:22:03;97535.22;;;18.99;100.00
20115;BME280;10218;42.874;25.320;2023-06-22T03:24:30;97537.13;;;18.86;100.00
20115;BME280;10218;42.874;25.320;2023-06-22T03:26:57;97541.69;;;18.92;100.00
20115;BME280;10218;42.874;25.320;2023-06-22T03:29:24;97536.25;;;18.98;100.00
20115;BME280;10218;42.874;25.320;2023-06-22T03:31:54;97541.59;;;19.05;100.00
20115;BME280;10218;42.874;25.320;2023-06-22T03:34:21;97529.09;;;19.10;100.00
20115;BME280;10218;42.874;25.320;2023-06-22T03:36:50;97538.87;;;19.11;100.00
20115;BME280;10218;42.874;25.320;2023-06-22T03:39:18;97542.25;;;19.00;100.00
20115;BME280;10218;42.874;25.320;2023-06-22T03:41:45;97536.44;;;19.03;100.00
20115;BME280;10218;42.874;25.320;2023-06-22T03:44:12;97543.88;;;19.14;100.00
20115;BME280;10218;42.874;25.320;2023-06-22T03:46:39;97557.00;;;19.11;100.00
20115;BME280;10218;42.874;25.320;2023-06-22T03:49:06;97539.72;;;19.12;100.00
20115;BME280;10218;42.874;25.320;2023-06-22T03:51:33;97538.81;;;19.25;100.00
20115;BME280;10218;42.874;25.320;2023-06-22T03:54:01;97541.06;;;19.28;100.00
20115;BME280;10218;42.874;25.320;2023-06-22T03:56:28;97536.63;;;19.40;100.00
20115;BME280;10218;42.874;25.320;2023-06-22T03:58:55;97539.59;;;19.32;100.00
20115;BME280;10218;42.874;25.320;2023-06-22T04:01:23;97531.81;;;19.42;100.00
20115;BME280;10218;42.874;25.320;2023-06-22T04:03:50;97531.91;;;19.29;100.00
20115;BME280;10218;42.874;25.320;2023-06-22T04:06:17;97537.59;;;19.52;100.00
20115;BME280;10218;42.874;25.320;2023-06-22T04:08:45;97547.59;;;19.51;100.00
20115;BME280;10218;42.874;25.320;2023-06-22T04:11:18;97548.53;;;19.70;100.00
20115;BME280;10218;42.874;25.320;2023-06-22T04:13:45;97546.75;;;19.82;100.00
20115;BME280;10218;42.874;25.320;2023-06-22T04:16:12;97530.72;;;19.81;100.00
20115;BME280;10218;42.874;25.320;2023-06-22T04:18:39;97545.44;;;20.16;100.00
20115;BME280;10218;42.874;25.320;2023-06-22T04:21:06;97538.38;;;20.08;100.00
20115;BME280;10218;42.874;25.320;2023-06-22T04:23:33;97537.34;;;20.10;100.00
20115;BME280;10218;42.874;25.320;2023-06-22T04:26:00;97537.63;;;20.44;100.00
20115;BME280;10218;42.874;25.320;2023-06-22T04:28:27;97541.03;;;20.58;100.00
20115;BME280;10218;42.874;25.320;2023-06-22T04:30:54;97542.56;;;20.72;100.00
20115;BME280;10218;42.874;25.320;2023-06-22T04:33:29;97535.28;;;20.84;100.00
20115;BME280;10218;42.874;25.320;2023-06-22T04:35:57;97530.19;;;20.76;100.00
20115;BME280;10218;42.874;25.320;2023-06-22T04:38:24;97545.25;;;20.90;100.00
20115;BME280;10218;42.874;25.320;2023-06-22T04:40:51;97554.66;;;21.06;100.00
20115;BME280;10218;42.874;25.320;2023-06-22T04:43:20;97547.19;;;20.83;100.00
20115;BME280;10218;42.874;25.320;2023-06-22T04:45:47;97546.81;;;20.98;100.00
20115;BME280;10218;42.874;25.320;2023-06-22T04:48:19;97550.03;;;20.77;100.00
20115;BME280;10218;42.874;25.320;2023-06-22T04:50:46;97542.97;;;21.06;100.00
20115;BME280;10218;42.874;25.320;2023-06-22T04:53:13;97547.22;;;21.61;100.00
20115;BME280;10218;42.874;25.320;2023-06-22T04:55:41;97545.06;;;21.52;100.00
20115;BME280;10218;42.874;25.320;2023-06-22T04:58:08;97553.28;;;21.87;100.00
20115;BME280;10218;42.874;25.320;2023-06-22T05:00:35;97533.97;;;21.53;100.00
20115;BME280;10218;42.874;25.320;2023-06-22T05:03:05;97547.06;;;21.98;100.00
20115;BME280;10218;42.874;25.320;2023-06-22T05:05:44;97538.66;;;22.11;100.00
20115;BME280;10218;42.874;25.320;2023-06-22T05:08:12;97541.41;;;22.34;100.00
20115;BME280;10218;42.874;25.320;2023-06-22T05:10:40;97530.16;;;22.19;100.00
20115;BME280;10218;42.874;25.320;2023-06-22T05:13:11;97537.81;;;22.45;100.00
20115;BME280;10218;42.874;25.320;2023-06-22T05:15:38;97537.59;;;22.35;100.00
20115;BME280;10218;42.874;25.320;2023-06-22T05:18:06;97534.97;;;22.64;100.00
20115;BME280;10218;42.874;25.320;2023-06-22T05:20:34;97533.66;;;22.66;100.00
20115;BME280;10218;42.874;25.320;2023-06-22T05:23:02;97540.41;;;22.87;100.00
20115;BME280;10218;42.874;25.320;2023-06-22T05:25:29;97541.00;;;22.77;100.00
20115;BME280;10218;42.874;25.320;2023-06-22T05:27:59;97536.25;;;23.24;100.00
20115;BME280;10218;42.874;25.320;2023-06-22T05:30:26;97543.72;;;23.17;100.00
20115;BME280;10218;42.874;25.320;2023-06-22T05:32:54;97540.34;;;23.67;100.00
20115;BME280;10218;42.874;25.320;2023-06-22T05:35:21;97533.31;;;24.04;100.00
20115;BME280;10218;42.874;25.320;2023-06-22T05:37:48;97542.66;;;23.75;100.00
20115;BME280;10218;42.874;25.320;2023-06-22T05:40:15;97537.78;;;24.10;100.00
20115;BME280;10218;42.874;25.320;2023-06-22T05:42:43;97536.81;;;24.16;100.00
20115;BME280;10218;42.874;25.320;2023-06-22T05:45:10;97545.09;;;24.21;100.00
20115;BME280;10218;42.874;25.320;2023-06-22T05:47:37;97531.34;;;24.00;100.00
20115;BME280;10218;42.874;25.320;2023-06-22T05:50:05;97542.00;;;24.35;100.00
20115;BME280;10218;42.874;25.320;2023-06-22T05:52:35;97543.97;;;24.39;100.00
20115;BME280;10218;42.874;25.320;2023-06-22T05:55:03;97540.84;;;24.47;100.00
20115;BME280;10218;42.874;25.320;2023-06-22T05:57:30;97546.00;;;24.65;100.00
20115;BME280;10218;42.874;25.320;2023-06-22T05:59:57;97536.69;;;25.27;100.00
20115;BME280;10218;42.874;25.320;2023-06-22T06:02:24;97541.84;;;25.50;100.00
20115;BME280;10218;42.874;25.320;2023-06-22T06:04:52;97534.56;;;25.55;100.00
20115;BME280;10218;42.874;25.320;2023-06-22T06:07:19;97537.75;;;26.06;100.00
20115;BME280;10218;42.874;25.320;2023-06-22T06:09:46;97539.37;;;26.34;100.00
20115;BME280;10218;42.874;25.320;2023-06-22T06:12:15;97541.69;;;26.57;100.00
20115;BME280;10218;42.874;25.320;2023-06-22T06:14:42;97545.69;;;26.34;100.00
20115;BME280;10218;42.874;25.320;2023-06-22T06:17:09;97547.41;;;26.46;100.00
20115;BME280;10218;42.874;25.320;2023-06-22T06:19:36;97549.88;;;26.94;100.00
20115;BME280;10218;42.874;25.320;2023-06-22T06:22:03;97556.00;;;27.11;100.00
20115;BME280;10218;42.874;25.320;2023-06-22T06:24:30;97558.03;;;27.46;100.00
20115;BME280;10218;42.874;25.320;2023-06-22T06:26:57;97555.00;;;27.43;100.00
20115;BME280;10218;42.874;25.320;2023-06-22T06:29:24;97550.31;;;27.38;100.00
20115;BME280;10218;42.874;25.320;2023-06-22T06:31:51;97550.53;;;27.16;100.00
20115;BME280;10218;42.874;25.320;2023-06-22T06:34:20;97552.75;;;27.24;100.00
20115;BME280;10218;42.874;25.320;2023-06-22T06:36:47;97543.88;;;27.02;100.00
20115;BME280;10218;42.874;25.320;2023-06-22T06:39:14;97541.78;;;26.72;100.00
20115;BME280;10218;42.874;25.320;2023-06-22T06:41:43;97549.69;;;27.11;100.00
20115;BME280;10218;42.874;25.320;2023-06-22T06:44:13;97557.75;;;27.38;100.00
20115;BME280;10218;42.874;25.320;2023-06-22T06:46:40;97556.13;;;26.85;100.00
20115;BME280;10218;42.874;25.320;2023-06-22T06:49:09;97548.47;;;27.59;100.00
20115;BME280;10218;42.874;25.320;2023-06-22T06:51:36;97548.59;;;27.07;100.00
20115;BME280;10218;42.874;25.320;2023-06-22T06:54:03;97548.81;;;27.88;100.00
20115;BME280;10218;42.874;25.320;2023-06-22T06:56:30;97554.41;;;27.31;100.00
20115;BME280;10218;42.874;25.320;2023-06-22T06:58:59;97552.03;;;27.59;100.00
20115;BME280;10218;42.874;25.320;2023-06-22T07:01:26;97560.59;;;27.68;100.00
20115;BME280;10218;42.874;25.320;2023-06-22T07:03:54;97558.97;;;27.97;100.00
20115;BME280;10218;42.874;25.320;2023-06-22T07:06:21;97555.16;;;28.19;100.00
20115;BME280;10218;42.874;25.320;2023-06-22T07:08:48;97563.56;;;27.51;100.00
20115;BME280;10218;42.874;25.320;2023-06-22T07:11:15;97558.59;;;26.86;100.00
20115;BME280;10218;42.874;25.320;2023-06-22T07:13:42;97558.97;;;27.00;100.00
20115;BME280;10218;42.874;25.320;2023-06-22T07:16:09;97552.09;;;27.85;100.00
20115;BME280;10218;42.874;25.320;2023-06-22T07:18:36;97554.34;;;28.23;100.00
20115;BME280;10218;42.874;25.320;2023-06-22T07:21:03;97560.63;;;28.59;100.00
20115;BME280;10218;42.874;25.320;2023-06-22T07:23:33;97558.16;;;27.97;100.00
20115;BME280;10218;42.874;25.320;2023-06-22T07:26:00;97566.06;;;27.53;100.00
20115;BME280;10218;42.874;25.320;2023-06-22T07:28:32;97568.91;;;28.24;100.00
20115;BME280;10218;42.874;25.320;2023-06-22T07:31:04;97563.59;;;28.93;100.00
20115;BME280;10218;42.874;25.320;2023-06-22T07:33:31;97561.25;;;29.30;93.85
20115;BME280;10218;42.874;25.320;2023-06-22T07:35:58;97564.09;;;29.64;87.17
20115;BME280;10218;42.874;25.320;2023-06-22T07:38:25;97566.66;;;29.56;87.22
20115;BME280;10218;42.874;25.320;2023-06-22T07:40:52;97563.53;;;29.67;92.48
20115;BME280;10218;42.874;25.320;2023-06-22T07:43:20;97559.59;;;29.29;85.96
20115;BME280;10218;42.874;25.320;2023-06-22T07:45:49;97568.72;;;29.20;95.99
20115;BME280;10218;42.874;25.320;2023-06-22T07:48:22;97569.66;;;27.89;100.00
20115;BME280;10218;42.874;25.320;2023-06-22T07:50:50;97549.94;;;28.22;100.00
20115;BME280;10218;42.874;25.320;2023-06-22T07:53:17;97562.06;;;29.31;89.88
20115;BME280;10218;42.874;25.320;2023-06-22T07:55:44;97555.37;;;28.63;100.00
20115;BME280;10218;42.874;25.320;2023-06-22T07:58:11;97571.22;;;29.11;99.37
20115;BME280;10218;42.874;25.320;2023-06-22T08:00:38;97571.28;;;28.86;98.92
20115;BME280;10218;42.874;25.320;2023-06-22T08:03:05;97569.53;;;29.20;81.92
20115;BME280;10218;42.874;25.320;2023-06-22T08:05:32;97575.44;;;28.78;88.81
20115;BME280;10218;42.874;25.320;2023-06-22T08:07:59;97571.53;;;29.00;89.60
20115;BME280;10218;42.874;25.320;2023-06-22T08:10:27;97563.91;;;28.46;90.22
20115;BME280;10218;42.874;25.320;2023-06-22T08:12:54;97564.03;;;29.25;84.83
20115;BME280;10218;42.874;25.320;2023-06-22T08:15:21;97564.44;;;28.78;88.82
20115;BME280;10218;42.874;25.320;2023-06-22T08:17:49;97564.56;;;29.22;91.97
20115;BME280;10218;42.874;25.320;2023-06-22T08:20:16;97567.34;;;29.71;89.94
20115;BME280;10218;42.874;25.320;2023-06-22T08:22:43;97569.34;;;30.10;81.56
20115;BME280;10218;42.874;25.320;2023-06-22T08:25:11;97561.53;;;29.24;92.66
20115;BME280;10218;42.874;25.320;2023-06-22T08:27:38;97550.75;;;30.26;84.95
20115;BME280;10218;42.874;25.320;2023-06-22T08:30:07;97553.78;;;29.85;85.50
20115;BME280;10218;42.874;25.320;2023-06-22T08:32:34;97556.28;;;29.82;81.74
20115;BME280;10218;42.874;25.320;2023-06-22T08:35:01;97567.41;;;30.10;79.94
20115;BME280;10218;42.874;25.320;2023-06-22T08:37:28;97563.59;;;30.06;80.78
20115;BME280;10218;42.874;25.320;2023-06-22T08:40:04;97567.91;;;31.04;76.48
20115;BME280;10218;42.874;25.320;2023-06-22T08:42:32;97562.72;;;29.62;89.73
20115;BME280;10218;42.874;25.320;2023-06-22T08:44:59;97569.25;;;29.81;81.36
20115;BME280;10218;42.874;25.320;2023-06-22T08:47:29;97562.94;;;30.48;83.04
20115;BME280;10218;42.874;25.320;2023-06-22T08:49:56;97569.00;;;29.13;94.92
20115;BME280;10218;42.874;25.320;2023-06-22T08:52:23;97559.38;;;30.48;87.82
20115;BME280;10218;42.874;25.320;2023-06-22T08:54:51;97559.06;;;30.78;80.95
20115;BME280;10218;42.874;25.320;2023-06-22T08:57:18;97561.53;;;31.51;78.53
20115;BME280;10218;42.874;25.320;2023-06-22T08:59:45;97563.22;;;31.28;83.08
20115;BME280;10218;42.874;25.320;2023-06-22T09:02:12;97559.94;;;30.45;79.88
20115;BME280;10218;42.874;25.320;2023-06-22T09:04:39;97550.50;;;30.80;76.20
20115;BME280;10218;42.874;25.320;2023-06-22T09:07:06;97546.75;;;31.42;88.86
20115;BME280;10218;42.874;25.320;2023-06-22T09:09:33;97549.91;;;31.30;84.17
20115;BME280;10218;42.874;25.320;2023-06-22T09:12:00;97550.09;;;30.34;72.72
20115;BME280;10218;42.874;25.320;2023-06-22T09:14:27;97559.19;;;30.05;73.93
20115;BME280;10218;42.874;25.320;2023-06-22T09:16:55;97547.47;;;30.18;71.13
20115;BME280;10218;42.874;25.320;2023-06-22T09:19:22;97556.41;;;31.63;64.81
20115;BME280;10218;42.874;25.320;2023-06-22T09:21:49;97553.16;;;31.56;66.14
20115;BME280;10218;42.874;25.320;2023-06-22T09:24:16;97549.88;;;30.88;61.62
20115;BME280;10218;42.874;25.320;2023-06-22T09:26:43;97539.78;;;30.49;59.13
20115;BME280;10218;42.874;25.320;2023-06-22T09:29:10;97544.53;;;31.81;71.07
20115;BME280;10218;42.874;25.320;2023-06-22T09:31:37;97542.19;;;29.93;66.82
20115;BME280;10218;42.874;25.320;2023-06-22T09:34:05;97537.97;;;31.35;60.25
20115;BME280;10218;42.874;25.320;2023-06-22T09:36:31;97535.09;;;30.50;67.29
20115;BME280;10218;42.874;25.320;2023-06-22T09:38:59;97529.16;;;31.75;71.35
20115;BME280;10218;42.874;25.320;2023-06-22T09:41:28;97520.12;;;32.53;73.70
20115;BME280;10218;42.874;25.320;2023-06-22T09:43:55;97530.63;;;30.54;72.60
20115;BME280;10218;42.874;25.320;2023-06-22T09:46:23;97527.97;;;30.96;71.11
20115;BME280;10218;42.874;25.320;2023-06-22T09:48:52;97525.75;;;32.16;71.45
20115;BME280;10218;42.874;25.320;2023-06-22T09:51:19;97527.62;;;31.46;65.99
20115;BME280;10218;42.874;25.320;2023-06-22T09:53:51;97529.00;;;31.24;66.28
20115;BME280;10218;42.874;25.320;2023-06-22T09:56:19;97525.28;;;31.15;63.90
20115;BME280;10218;42.874;25.320;2023-06-22T09:58:46;97532.13;;;31.60;67.41
20115;BME280;10218;42.874;25.320;2023-06-22T10:01:14;97529.13;;;29.65;79.66
20115;BME280;10218;42.874;25.320;2023-06-22T10:03:44;97528.44;;;31.04;70.65
20115;BME280;10218;42.874;25.320;2023-06-22T10:06:11;97521.97;;;30.89;68.51
20115;BME280;10218;42.874;25.320;2023-06-22T10:08:38;97527.75;;;31.78;65.72
20115;BME280;10218;42.874;25.320;2023-06-22T10:11:07;97533.34;;;31.12;66.62
20115;BME280;10218;42.874;25.320;2023-06-22T10:13:34;97521.47;;;30.87;71.96
20115;BME280;10218;42.874;25.320;2023-06-22T10:16:01;97526.66;;;31.36;75.00
20115;BME280;10218;42.874;25.320;2023-06-22T10:18:29;97526.63;;;30.07;80.91
20115;BME280;10218;42.874;25.320;2023-06-22T10:20:57;97516.91;;;30.49;78.13
20115;BME280;10218;42.874;25.320;2023-06-22T10:23:24;97522.03;;;31.32;66.80
20115;BME280;10218;42.874;25.320;2023-06-22T10:25:51;97524.31;;;31.01;65.14
20115;BME280;10218;42.874;25.320;2023-06-22T10:28:19;97512.91;;;32.06;63.76
20115;BME280;10218;42.874;25.320;2023-06-22T10:30:46;97516.09;;;32.92;59.37
20115;BME280;10218;42.874;25.320;2023-06-22T10:33:15;97524.31;;;31.25;64.23
20115;BME280;10218;42.874;25.320;2023-06-22T10:35:42;97506.25;;;32.26;65.14
20115;BME280;10218;42.874;25.320;2023-06-22T10:38:09;97510.34;;;33.79;59.60
20115;BME280;10218;42.874;25.320;2023-06-22T10:40:36;97503.25;;;34.84;55.77
20115;BME280;10218;42.874;25.320;2023-06-22T10:43:03;97506.34;;;33.08;56.06
20115;BME280;10218;42.874;25.320;2023-06-22T10:45:30;97506.50;;;33.17;56.06
20115;BME280;10218;42.874;25.320;2023-06-22T10:47:58;97504.81;;;32.29;61.79
20115;BME280;10218;42.874;25.320;2023-06-22T10:50:25;97503.97;;;32.14;60.91
20115;BME280;10218;42.874;25.320;2023-06-22T10:52:53;97505.06;;;31.20;65.72
20115;BME280;10218;42.874;25.320;2023-06-22T10:55:21;97494.75;;;31.68;63.76
20115;BME280;10218;42.874;25.320;2023-06-22T10:57:48;97500.31;;;33.06;58.33
20115;BME280;10218;42.874;25.320;2023-06-22T11:00:15;97494.19;;;31.28;64.93
20115;BME280;10218;42.874;25.320;2023-06-22T11:02:43;97492.63;;;32.76;59.51
20115;BME280;10218;42.874;25.320;2023-06-22T11:05:10;97490.28;;;34.18;49.77
20115;BME280;10218;42.874;25.320;2023-06-22T11:07:43;97481.09;;;33.50;58.01
20115;BME280;10218;42.874;25.320;2023-06-22T11:10:12;97494.50;;;34.15;51.70
20115;BME280;10218;42.874;25.320;2023-06-22T11:12:39;97492.63;;;34.02;51.94
20115;BME280;10218;42.874;25.320;2023-06-22T11:15:07;97500.44;;;33.01;52.82
20115;BME280;10218;42.874;25.320;2023-06-22T11:17:35;97508.19;;;32.25;57.32
20115;BME280;10218;42.874;25.320;2023-06-22T11:20:02;97502.25;;;31.81;54.64
20115;BME280;10218;42.874;25.320;2023-06-22T11:22:45;97502.34;;;31.38;55.53
20115;BME280;10218;42.874;25.320;2023-06-22T11:25:12;97505.06;;;31.62;57.71
20115;BME280;10218;42.874;25.320;2023-06-22T11:27:40;97507.19;;;30.23;59.68
20115;BME280;10218;42.874;25.320;2023-06-22T11:30:07;97506.63;;;30.26;61.90
20115;BME280;10218;42.874;25.320;2023-06-22T11:32:34;97500.09;;;30.45;59.27
20115;BME280;10218;42.874;25.320;2023-06-22T11:35:02;97501.97;;;32.47;51.88
20115;BME280;10218;42.874;25.320;2023-06-22T11:37:30;97500.37;;;33.91;53.75
20115;BME280;10218;42.874;25.320;2023-06-22T11:39:57;97497.00;;;33.81;50.32
20115;BME280;10218;42.874;25.320;2023-06-22T11:42:31;97501.22;;;32.88;53.57
20115;BME280;10218;42.874;25.320;2023-06-22T11:44:58;97505.72;;;31.54;57.60
20115;BME280;10218;42.874;25.320;2023-06-22T11:47:26;97503.44;;;30.71;60.24
20115;BME280;10218;42.874;25.320;2023-06-22T11:49:53;97503.69;;;31.60;60.19
20115;BME280;10218;42.874;25.320;2023-06-22T11:52:21;97499.25;;;31.40;63.87
20115;BME280;10218;42.874;25.320;2023-06-22T11:54:48;97497.19;;;30.84;64.57
20115;BME280;10218;42.874;25.320;2023-06-22T11:57:15;97497.91;;;30.47;67.44
20115;BME280;10218;42.874;25.320;2023-06-22T11:59:42;97482.91;;;30.01;72.54
20115;BME280;10218;42.874;25.320;2023-06-22T12:02:10;97497.47;;;29.62;79.94
20115;BME280;10218;42.874;25.320;2023-06-22T12:04:37;97492.03;;;29.96;78.14
20115;BME280;10218;42.874;25.320;2023-06-22T12:07:04;97497.16;;;30.37;74.81
20115;BME280;10218;42.874;25.320;2023-06-22T12:09:31;97491.69;;;30.03;75.49
20115;BME280;10218;42.874;25.320;2023-06-22T12:11:58;97493.59;;;30.02;72.59
20115;BME280;10218;42.874;25.320;2023-06-22T12:14:25;97491.88;;;30.40;73.75
20115;BME280;10218;42.874;25.320;2023-06-22T12:16:52;97498.63;;;31.06;65.55
20115;BME280;10218;42.874;25.320;2023-06-22T12:19:20;97494.59;;;32.29;63.91
20115;BME280;10218;42.874;25.320;2023-06-22T12:21:47;97492.75;;;33.47;62.44
20115;BME280;10218;42.874;25.320;2023-06-22T12:24:14;97488.84;;;33.26;66.68
20115;BME280;10218;42.874;25.320;2023-06-22T12:26:41;97487.38;;;31.39;74.14
20115;BME280;10218;42.874;25.320;2023-06-22T12:29:09;97480.13;;;31.06;81.88
20115;BME280;10218;42.874;25.320;2023-06-22T12:31:36;97472.78;;;30.96;80.73
20115;BME280;10218;42.874;25.320;2023-06-22T12:34:06;97470.19;;;32.31;66.30
20115;BME280;10218;42.874;25.320;2023-06-22T12:36:33;97476.91;;;32.11;78.43
20115;BME280;10218;42.874;25.320;2023-06-22T12:39:00;97483.59;;;31.92;68.06
20115;BME280;10218;42.874;25.320;2023-06-22T12:41:29;97486.59;;;34.09;55.40
20115;BME280;10218;42.874;25.320;2023-06-22T12:43:56;97473.56;;;34.93;55.94
20115;BME280;10218;42.874;25.320;2023-06-22T12:46:24;97481.09;;;35.01;49.16
20115;BME280;10218;42.874;25.320;2023-06-22T12:48:51;97476.53;;;34.13;49.31
20115;BME280;10218;42.874;25.320;2023-06-22T12:51:22;97468.06;;;34.40;49.40
20115;BME280;10218;42.874;25.320;2023-06-22T12:53:49;97461.91;;;34.74;52.60